Time;durP1;ratioP1;P1;durP2;ratioP2;P2;SDS_P1;SDS_P2;PMS_P1;PMS_P2;Temp;Humidity;BMP_temperature;BMP_pressure;BME280_temperature;BME280_humidity;BME280_pressure;Samples;Min_cycle;Max_cycle;Signal;HPM_P1;HPM_P2
2021/09/14 00:00:36;;;;;;;4.07;3.10;;;15.90;99.90;;;;;;5049468;28;20212;-72
2021/09/14 00:03:02;;;;;;;4.03;3.37;;;15.90;99.90;;;;;;5049778;28;20670;-72
2021/09/14 00:05:29;;;;;;;3.97;3.57;;;15.90;99.90;;;;;;5049576;28;20583;-70
2021/09/14 00:07:56;;;;;;;3.30;3.10;;;15.90;99.90;;;;;;5050116;28;20216;-71
2021/09/14 00:10:23;;;;;;;5.87;3.17;;;15.80;99.90;;;;;;5049722;28;20290;-72
2021/09/14 00:12:51;;;;;;;3.00;2.80;;;15.80;99.90;;;;;;5049805;28;20212;-72
2021/09/14 00:15:17;;;;;;;3.10;2.90;;;15.80;99.90;;;;;;5049794;28;20646;-71
2021/09/14 00:17:44;;;;;;;3.67;2.90;;;15.90;99.90;;;;;;5049667;28;20263;-71
2021/09/14 00:20:12;;;;;;;4.37;3.30;;;15.90;99.90;;;;;;5049538;28;20227;-71
2021/09/14 00:22:39;;;;;;;3.73;3.40;;;15.80;99.90;;;;;;5049588;28;20651;-71
2021/09/14 00:25:06;;;;;;;4.37;3.00;;;15.90;99.90;;;;;;5049509;28;20283;-72
2021/09/14 00:27:33;;;;;;;3.33;2.90;;;15.90;99.90;;;;;;5049807;28;20254;-72
2021/09/14 00:30:01;;;;;;;4.93;3.63;;;15.90;99.90;;;;;;5049559;28;20212;-73
2021/09/14 00:32:27;;;;;;;4.00;3.53;;;15.90;99.90;;;;;;5049140;28;20662;-73
2021/09/14 00:34:54;;;;;;;3.53;3.00;;;15.90;99.90;;;;;;5049156;28;20258;-74
2021/09/14 00:37:20;;;;;;;3.53;3.27;;;15.90;99.90;;;;;;5049127;28;20650;-74
2021/09/14 00:39:47;;;;;;;2.93;2.70;;;15.90;99.90;;;;;;5049129;28;20243;-74
2021/09/14 00:42:14;;;;;;;5.13;3.03;;;15.90;99.90;;;;;;5049429;28;20204;-74
2021/09/14 00:44:40;;;;;;;3.10;2.80;;;15.90;99.90;;;;;;5049043;28;20224;-74
2021/09/14 00:47:09;;;;;;;3.70;3.07;;;15.90;99.90;;;;;;5048262;28;20212;-74
2021/09/14 00:49:35;;;;;;;3.50;3.17;;;15.90;99.90;;;;;;5048962;28;20205;-74
2021/09/14 00:52:03;;;;;;;3.40;3.10;;;15.90;99.90;;;;;;5049012;28;20212;-72
2021/09/14 00:54:31;;;;;;;5.47;3.20;;;15.90;99.90;;;;;;5048964;28;20204;-73
2021/09/14 00:56:58;;;;;;;3.23;3.03;;;15.90;99.90;;;;;;5048865;28;20611;-73
2021/09/14 00:59:25;;;;;;;3.20;3.00;;;15.80;99.90;;;;;;5049176;28;20204;-73
2021/09/14 01:01:53;;;;;;;3.40;3.10;;;15.80;99.90;;;;;;5048782;28;20215;-73
2021/09/14 01:04:22;;;;;;;3.10;2.90;;;15.80;99.90;;;;;;5049176;28;20211;-73
2021/09/14 01:06:49;;;;;;;3.63;3.10;;;15.80;99.90;;;;;;5048832;28;20278;-73
2021/09/14 01:09:16;;;;;;;3.00;2.80;;;15.80;99.90;;;;;;5049183;28;20251;-73
2021/09/14 01:11:44;;;;;;;3.30;3.00;;;15.80;99.90;;;;;;5048943;28;20200;-73
2021/09/14 01:14:11;;;;;;;3.50;3.20;;;15.80;99.90;;;;;;5048379;28;20299;-73
2021/09/14 01:16:39;;;;;;;3.43;3.13;;;15.80;99.90;;;;;;5048438;28;20235;-73
2021/09/14 01:19:08;;;;;;;3.57;3.27;;;15.80;99.90;;;;;;5048709;28;20932;-73
2021/09/14 01:21:36;;;;;;;3.70;3.40;;;15.70;99.90;;;;;;5048876;28;20208;-73
2021/09/14 01:24:05;;;;;;;4.10;3.37;;;15.70;99.90;;;;;;5048659;28;20231;-73
2021/09/14 01:26:32;;;;;;;4.27;3.33;;;15.70;99.90;;;;;;5048533;28;20282;-73
2021/09/14 01:29:05;;;;;;;3.03;2.83;;;15.70;99.90;;;;;;5048794;28;20200;-72
2021/09/14 01:31:31;;;;;;;4.50;3.60;;;15.70;99.90;;;;;;5048475;28;20576;-73
2021/09/14 01:33:58;;;;;;;4.87;3.57;;;15.70;99.90;;;;;;5048566;28;20208;-73
2021/09/14 01:36:24;;;;;;;5.17;3.50;;;15.70;99.90;;;;;;5048529;28;20212;-73
2021/09/14 01:38:51;;;;;;;4.30;3.60;;;15.70;99.90;;;;;;5048557;28;20360;-73
2021/09/14 01:41:19;;;;;;;3.77;3.53;;;15.70;99.90;;;;;;5048613;28;20200;-73
2021/09/14 01:43:47;;;;;;;4.90;3.60;;;15.70;99.90;;;;;;5048256;28;20255;-72
2021/09/14 01:46:13;;;;;;;3.90;3.60;;;15.70;99.90;;;;;;5048396;28;20207;-73
2021/09/14 01:48:40;;;;;;;3.77;3.47;;;15.70;99.90;;;;;;5048598;28;20230;-72
2021/09/14 01:51:07;;;;;;;4.83;3.20;;;15.70;99.90;;;;;;5048473;28;20262;-73
2021/09/14 01:53:33;;;;;;;4.47;3.10;;;15.70;99.90;;;;;;5048203;28;20744;-72
2021/09/14 01:56:03;;;;;;;7.20;3.57;;;15.70;99.90;;;;;;5048099;28;20226;-72
2021/09/14 01:58:31;;;;;;;3.60;3.37;;;15.70;99.90;;;;;;5048471;28;20235;-71
2021/09/14 02:01:03;;;;;;;4.37;2.80;;;15.70;99.90;;;;;;5052045;28;20215;-71
2021/09/14 02:03:40;;;;;;;3.50;3.20;;;15.70;99.90;;;;;;5052399;28;20196;-71
2021/09/14 02:23:35;;;;;;;3.47;3.00;;;15.70;99.90;;;;;;5038578;28;20318;-72
2021/09/14 02:42:40;;;;;;;3.87;2.87;;;15.40;99.90;;;;;;5035951;28;20204;-73
2021/09/14 02:56:22;;;;;;;7.30;3.07;;;15.40;99.90;;;;;;5051460;28;20227;-71
2021/09/14 02:58:49;;;;;;;3.80;2.83;;;15.30;99.90;;;;;;5061775;28;20490;-71
2021/09/14 03:01:16;;;;;;;3.60;3.30;;;15.30;99.90;;;;;;5071064;28;20208;-73
2021/09/14 03:03:46;;;;;;;5.23;3.23;;;15.30;99.90;;;;;;5071061;28;20562;-74
2021/09/14 03:06:13;;;;;;;3.67;3.37;;;15.30;99.90;;;;;;5069402;28;20228;-73
2021/09/14 03:08:41;;;;;;;3.27;3.00;;;15.30;99.90;;;;;;5067103;28;20571;-73
2021/09/14 03:11:09;;;;;;;3.90;2.93;;;15.30;99.90;;;;;;5066281;28;20211;-73
2021/09/14 03:13:36;;;;;;;4.07;2.93;;;15.30;99.90;;;;;;5066863;28;20621;-73
2021/09/14 03:16:04;;;;;;;3.77;2.93;;;15.30;99.90;;;;;;5067055;28;20235;-78
2021/09/14 03:18:30;;;;;;;3.13;2.83;;;15.30;99.90;;;;;;5066813;28;20263;-78
2021/09/14 03:20:58;;;;;;;3.87;3.30;;;15.30;99.90;;;;;;5067119;28;20220;-78
2021/09/14 03:23:25;;;;;;;5.73;3.50;;;15.30;99.90;;;;;;5066478;28;20547;-73
2021/09/14 03:25:51;;;;;;;3.37;3.07;;;15.30;99.90;;;;;;5066477;28;20308;-73
2021/09/14 03:28:18;;;;;;;3.97;3.70;;;15.30;99.90;;;;;;5066794;28;20208;-74
2021/09/14 03:30:45;;;;;;;5.03;3.60;;;15.30;99.90;;;;;;5067136;28;20211;-74
2021/09/14 03:33:12;;;;;;;3.47;3.10;;;15.30;99.90;;;;;;5066864;28;20208;-74
2021/09/14 03:35:38;;;;;;;3.83;3.53;;;15.30;99.90;;;;;;5066868;28;20208;-73
2021/09/14 03:38:06;;;;;;;4.10;3.70;;;15.30;99.90;;;;;;5066298;28;20618;-74
2021/09/14 03:40:33;;;;;;;3.90;3.60;;;15.30;99.90;;;;;;5065985;28;20754;-73
2021/09/14 03:43:00;;;;;;;4.03;3.63;;;15.30;99.90;;;;;;5066048;28;20729;-73
2021/09/14 03:45:28;;;;;;;3.43;3.10;;;15.30;99.90;;;;;;5066868;28;20208;-73
2021/09/14 03:47:54;;;;;;;4.83;3.77;;;15.30;99.90;;;;;;5066056;28;20212;-74
2021/09/14 03:50:21;;;;;;;4.03;3.63;;;15.30;99.90;;;;;;5066428;28;20262;-74
2021/09/14 03:52:48;;;;;;;3.70;3.40;;;15.30;99.90;;;;;;5066898;28;20237;-74
2021/09/14 03:55:16;;;;;;;4.73;3.90;;;15.30;99.90;;;;;;5066570;28;20208;-73
2021/09/14 03:57:43;;;;;;;4.53;4.17;;;15.20;99.90;;;;;;5066316;28;20207;-74
2021/09/14 04:00:11;;;;;;;4.50;4.00;;;15.20;99.90;;;;;;5053356;28;20244;-73
2021/09/14 04:02:40;;;;;;;6.27;3.50;;;15.20;99.90;;;;;;5055076;28;20908;-73
2021/09/14 04:10:48;;;;;;;4.77;3.97;;;15.10;99.90;;;;;;5104672;28;20213;-73
2021/09/14 04:13:15;;;;;;;5.47;3.93;;;15.10;99.90;;;;;;5105181;28;20197;-73
2021/09/14 04:15:41;;;;;;;4.77;3.63;;;15.10;99.90;;;;;;5104853;28;20889;-73
2021/09/14 04:18:10;;;;;;;4.27;3.97;;;15.10;99.90;;;;;;5105126;28;20209;-73
2021/09/14 04:20:37;;;;;;;3.93;3.67;;;15.10;99.90;;;;;;5105101;28;20202;-73
2021/09/14 04:23:05;;;;;;;4.00;3.70;;;15.00;99.90;;;;;;5104836;28;20201;-73
2021/09/14 04:25:32;;;;;;;3.80;3.47;;;15.00;99.90;;;;;;5105064;28;20664;-73
2021/09/14 04:27:59;;;;;;;4.40;4.03;;;15.00;99.90;;;;;;5104744;28;20278;-73
2021/09/14 04:30:25;;;;;;;4.97;4.23;;;15.00;99.90;;;;;;5104924;28;20217;-73
2021/09/14 04:32:52;;;;;;;4.20;3.90;;;14.90;99.90;;;;;;5104484;28;20203;-73
2021/09/14 04:35:18;;;;;;;4.43;4.03;;;14.90;99.90;;;;;;5104400;28;20400;-73
2021/09/14 04:37:45;;;;;;;5.20;3.80;;;14.90;99.90;;;;;;5104734;28;20202;-73
2021/09/14 04:40:14;;;;;;;7.20;3.97;;;14.90;99.90;;;;;;5104459;28;20253;-73
2021/09/14 04:42:41;;;;;;;5.17;4.40;;;14.80;99.90;;;;;;5101785;28;20723;-73
2021/09/14 04:45:09;;;;;;;7.30;4.23;;;14.80;99.90;;;;;;5104107;28;20291;-73
2021/09/14 04:47:35;;;;;;;6.60;3.87;;;14.80;99.90;;;;;;5104165;28;20218;-73
2021/09/14 04:50:02;;;;;;;4.77;4.37;;;14.80;99.90;;;;;;5103672;28;20732;-73
2021/09/14 04:52:29;;;;;;;3.97;3.60;;;14.80;99.90;;;;;;5104550;28;20211;-73
2021/09/14 04:54:55;;;;;;;4.90;3.80;;;14.70;99.90;;;;;;5104450;28;20250;-73
2021/09/14 04:57:23;;;;;;;4.10;3.80;;;14.70;99.90;;;;;;5104727;28;20248;-73
2021/09/14 04:59:50;;;;;;;4.63;3.93;;;14.70;99.90;;;;;;5104233;28;20232;-73
2021/09/14 05:02:16;;;;;;;4.23;3.93;;;14.70;99.90;;;;;;5104267;28;20199;-73
2021/09/14 05:04:43;;;;;;;4.20;3.83;;;14.70;99.90;;;;;;5105241;28;20226;-73
2021/09/14 05:07:10;;;;;;;4.77;3.77;;;14.70;99.90;;;;;;5104236;28;20574;-73
2021/09/14 05:09:36;;;;;;;4.40;3.70;;;14.60;99.90;;;;;;5104588;28;20259;-76
2021/09/14 05:12:04;;;;;;;4.20;3.80;;;14.60;99.90;;;;;;5105434;28;20246;-76
2021/09/14 05:14:32;;;;;;;4.10;3.70;;;14.70;99.90;;;;;;5105124;28;20210;-72
2021/09/14 05:16:58;;;;;;;5.00;3.50;;;14.60;99.90;;;;;;5104560;28;20210;-73
2021/09/14 05:19:31;;;;;;;4.07;3.73;;;14.60;99.90;;;;;;5090426;28;20649;-73
2021/09/14 05:21:59;;;;;;;3.97;3.57;;;14.60;99.90;;;;;;5090605;28;20199;-72
2021/09/14 05:24:27;;;;;;;4.83;3.87;;;14.60;99.90;;;;;;5091133;28;20210;-73
2021/09/14 05:26:54;;;;;;;4.80;4.07;;;14.70;99.90;;;;;;5090821;28;20288;-73
2021/09/14 05:29:20;;;;;;;8.27;4.30;;;14.70;99.90;;;;;;5090741;28;20653;-72
2021/09/14 05:31:48;;;;;;;17.73;8.20;;;14.70;99.90;;;;;;5090946;28;20590;-73
2021/09/14 05:34:15;;;;;;;28.53;10.50;;;14.80;99.90;;;;;;5090915;28;20255;-73
2021/09/14 05:36:42;;;;;;;22.47;10.07;;;14.80;99.90;;;;;;5090613;28;20207;-73
2021/09/14 05:39:09;;;;;;;25.07;8.63;;;14.80;99.90;;;;;;5090556;28;20206;-73
2021/09/14 05:41:36;;;;;;;18.10;8.17;;;14.90;99.90;;;;;;5090653;28;20297;-73
2021/09/14 05:44:03;;;;;;;18.43;6.37;;;14.90;99.90;;;;;;5090375;28;20226;-73
2021/09/14 05:46:29;;;;;;;9.80;6.63;;;14.90;99.90;;;;;;5089318;28;20219;-73
2021/09/14 05:48:57;;;;;;;10.57;5.67;;;15.00;99.90;;;;;;5089293;28;20248;-73
2021/09/14 05:51:24;;;;;;;9.43;5.00;;;15.10;99.90;;;;;;5089534;28;20202;-73
2021/09/14 05:53:51;;;;;;;7.67;4.93;;;15.10;99.90;;;;;;5089126;28;20665;-73
2021/09/14 05:56:17;;;;;;;8.47;4.60;;;15.10;99.90;;;;;;5086628;28;20191;-73
2021/09/14 05:58:44;;;;;;;7.40;4.70;;;15.20;99.90;;;;;;5087785;28;20213;-73
2021/09/14 06:01:11;;;;;;;7.80;4.80;;;15.20;99.90;;;;;;5088607;28;20212;-72
2021/09/14 06:03:37;;;;;;;9.20;4.97;;;15.30;99.90;;;;;;5088993;28;20256;-73
2021/09/14 06:06:07;;;;;;;12.40;4.70;;;15.30;99.90;;;;;;5088623;28;20238;-73
2021/09/14 06:08:34;;;;;;;5.77;4.67;;;15.30;99.90;;;;;;5089066;28;20269;-73
2021/09/14 06:11:01;;;;;;;6.00;4.87;;;15.30;99.90;;;;;;5088634;28;20606;-73
2021/09/14 06:13:27;;;;;;;8.67;4.70;;;15.40;99.90;;;;;;5088513;28;20218;-73
2021/09/14 06:15:54;;;;;;;7.47;4.87;;;15.40;99.90;;;;;;5088629;28;20614;-73
2021/09/14 06:18:21;;;;;;;7.10;5.00;;;15.40;99.90;;;;;;5089155;28;20199;-72
2021/09/14 06:20:47;;;;;;;7.40;5.03;;;15.40;99.90;;;;;;5088874;28;20217;-72
2021/09/14 06:23:15;;;;;;;6.80;5.80;;;15.50;99.90;;;;;;5087870;28;20733;-73
2021/09/14 06:25:42;;;;;;;7.53;5.47;;;15.50;99.90;;;;;;5088105;28;20203;-77
2021/09/14 06:28:09;;;;;;;6.63;5.77;;;15.50;99.90;;;;;;5088543;28;20283;-77
2021/09/14 06:30:35;;;;;;;11.23;6.20;;;15.50;99.90;;;;;;5087343;28;20695;-77
2021/09/14 06:33:02;;;;;;;14.57;6.87;;;15.50;99.90;;;;;;5088815;28;20237;-77
2021/09/14 06:35:28;;;;;;;10.67;5.87;;;15.60;99.90;;;;;;5088642;28;20664;-73
2021/09/14 06:37:55;;;;;;;9.40;6.17;;;15.60;99.90;;;;;;5088042;28;20215;-73
2021/09/14 06:40:23;;;;;;;7.90;5.57;;;15.60;99.90;;;;;;5088062;28;20260;-73
2021/09/14 06:42:50;;;;;;;9.23;5.83;;;15.60;99.90;;;;;;5088376;28;20572;-73
2021/09/14 06:45:16;;;;;;;6.17;5.57;;;15.70;99.90;;;;;;5088439;28;20253;-73
2021/09/14 06:47:44;;;;;;;7.03;5.70;;;15.70;99.90;;;;;;5088054;28;20222;-73
2021/09/14 06:50:11;;;;;;;10.87;5.90;;;15.70;99.90;;;;;;5088061;28;20283;-73
2021/09/14 06:52:37;;;;;;;8.90;6.40;;;15.80;99.90;;;;;;5088070;28;20195;-73
2021/09/14 06:55:05;;;;;;;10.03;6.33;;;15.80;99.90;;;;;;5087515;28;20195;-73
2021/09/14 06:57:33;;;;;;;8.73;6.30;;;15.80;99.90;;;;;;5087497;28;20323;-73
2021/09/14 07:00:00;;;;;;;7.60;6.60;;;15.90;99.90;;;;;;5085668;28;20256;-73
2021/09/14 07:02:27;;;;;;;6.47;5.37;;;15.90;99.90;;;;;;5087887;28;20703;-73
2021/09/14 07:04:54;;;;;;;9.47;6.30;;;16.00;99.90;;;;;;5088157;28;20268;-73
2021/09/14 07:07:20;;;;;;;11.30;5.77;;;16.00;99.90;;;;;;5087594;28;20995;-73
2021/09/14 07:09:47;;;;;;;9.37;5.63;;;16.10;99.90;;;;;;5088642;28;20273;-73
2021/09/14 07:12:13;;;;;;;7.73;5.00;;;16.10;99.90;;;;;;5088762;28;20211;-73
2021/09/14 07:14:41;;;;;;;8.03;5.37;;;16.10;99.90;;;;;;5087892;28;20227;-73
2021/09/14 07:17:09;;;;;;;8.20;5.70;;;16.20;99.90;;;;;;5087036;28;20203;-73
2021/09/14 07:19:36;;;;;;;9.60;5.00;;;16.30;99.90;;;;;;5084951;28;20203;-74
2021/09/14 07:22:03;;;;;;;7.67;5.10;;;16.30;99.90;;;;;;5087817;28;20203;-73
2021/09/14 07:24:30;;;;;;;6.17;4.47;;;16.40;99.90;;;;;;5087535;28;20256;-73
2021/09/14 07:26:56;;;;;;;4.97;4.30;;;16.50;99.90;;;;;;5087487;28;20219;-73
2021/09/14 07:29:23;;;;;;;5.17;4.17;;;16.50;99.90;;;;;;5087703;28;20255;-73
2021/09/14 07:31:51;;;;;;;6.33;3.97;;;16.60;99.90;;;;;;5087170;28;20614;-73
2021/09/14 07:34:18;;;;;;;10.67;4.20;;;16.70;99.90;;;;;;5087602;28;20263;-73
2021/09/14 07:36:44;;;;;;;8.23;3.57;;;16.70;99.90;;;;;;5087757;28;20203;-73
2021/09/14 07:39:11;;;;;;;4.50;3.53;;;16.70;99.90;;;;;;5087693;28;20569;-73
2021/09/14 07:41:37;;;;;;;5.43;3.30;;;16.80;99.90;;;;;;5088213;28;20207;-73
2021/09/14 07:44:04;;;;;;;3.23;2.90;;;16.90;99.90;;;;;;5088227;28;20227;-73
2021/09/14 07:46:31;;;;;;;4.23;2.97;;;16.90;99.90;;;;;;5088084;28;20203;-73
2021/09/14 07:48:59;;;;;;;8.17;3.43;;;17.00;99.90;;;;;;5088008;28;20238;-73
2021/09/14 07:51:25;;;;;;;3.67;3.23;;;17.10;99.90;;;;;;5088382;28;20214;-73
2021/09/14 07:53:52;;;;;;;6.00;3.20;;;17.10;99.90;;;;;;5088179;28;20202;-73
2021/09/14 07:56:19;;;;;;;3.17;2.87;;;17.20;99.90;;;;;;5087910;28;20206;-73
2021/09/14 07:58:45;;;;;;;5.73;3.50;;;17.20;99.90;;;;;;5087921;28;20317;-73
2021/09/14 08:01:12;;;;;;;7.13;4.03;;;17.30;99.90;;;;;;5087835;28;20275;-73
2021/09/14 08:03:39;;;;;;;5.07;3.63;;;17.40;99.90;;;;;;5088318;28;20620;-76
2021/09/14 08:06:07;;;;;;;10.57;3.40;;;17.50;99.90;;;;;;5087991;28;20234;-76
2021/09/14 08:08:33;;;;;;;7.57;3.60;;;17.50;99.90;;;;;;5088058;28;20291;-75
2021/09/14 08:11:00;;;;;;;6.30;3.40;;;17.60;99.90;;;;;;5087741;28;20211;-74
2021/09/14 08:13:26;;;;;;;4.93;3.13;;;17.60;99.90;;;;;;5086802;28;20198;-73
2021/09/14 08:15:53;;;;;;;6.47;3.93;;;17.70;99.90;;;;;;5086685;28;20207;-73
2021/09/14 08:18:20;;;;;;;3.23;2.67;;;17.80;99.90;;;;;;5086718;28;20203;-73
2021/09/14 08:20:46;;;;;;;3.83;2.50;;;17.80;99.90;;;;;;5087075;28;20195;-73
2021/09/14 08:23:14;;;;;;;3.70;2.67;;;17.90;99.90;;;;;;5086712;28;20244;-73
2021/09/14 08:25:41;;;;;;;5.07;3.10;;;18.00;99.90;;;;;;5087061;28;20199;-74
2021/09/14 08:28:08;;;;;;;2.97;2.60;;;18.10;99.90;;;;;;5086640;28;20221;-74
2021/09/14 08:30:35;;;;;;;4.17;2.33;;;18.10;99.90;;;;;;5086642;28;20203;-74
2021/09/14 08:33:01;;;;;;;7.77;2.60;;;18.20;99.90;;;;;;5086689;28;20276;-73
2021/09/14 08:35:28;;;;;;;3.20;2.47;;;18.20;99.90;;;;;;5086796;28;20215;-74
2021/09/14 08:37:54;;;;;;;6.43;3.20;;;18.30;99.90;;;;;;5086544;28;20211;-74
2021/09/14 08:40:22;;;;;;;5.63;2.70;;;18.30;99.90;;;;;;5087041;28;20207;-74
2021/09/14 08:42:51;;;;;;;3.73;2.40;;;18.40;99.90;;;;;;5086733;28;20251;-74
2021/09/14 08:45:18;;;;;;;9.00;2.90;;;18.50;99.90;;;;;;5086404;28;20207;-74
2021/09/14 08:47:45;;;;;;;3.53;2.60;;;18.60;99.90;;;;;;5086828;28;20223;-73
2021/09/14 08:50:12;;;;;;;3.10;2.67;;;18.60;99.90;;;;;;5086453;28;20561;-73
2021/09/14 08:52:38;;;;;;;4.17;2.47;;;18.60;99.90;;;;;;5087007;28;20199;-74
2021/09/14 08:55:07;;;;;;;3.50;2.30;;;18.60;99.90;;;;;;5087715;28;20280;-74
2021/09/14 08:57:35;;;;;;;3.77;2.27;;;18.70;99.90;;;;;;5090202;28;20234;-74
2021/09/14 09:00:01;;;;;;;5.27;2.90;;;18.70;99.90;;;;;;5089815;28;20198;-74
2021/09/14 09:02:28;;;;;;;7.23;2.80;;;18.80;99.90;;;;;;5089978;28;20290;-73
2021/09/14 09:05:00;;;;;;;2.83;2.30;;;18.80;99.90;;;;;;5090102;28;20253;-73
2021/09/14 09:07:33;;;;;;;4.00;2.50;;;18.80;99.90;;;;;;5087279;28;20254;-73
2021/09/14 09:10:14;;;;;;;3.60;2.60;;;18.80;99.90;;;;;;5089965;28;20203;-73
2021/09/14 09:12:44;;;;;;;4.20;2.67;;;18.90;99.90;;;;;;5090307;28;20229;-74
2021/09/14 09:15:21;;;;;;;3.40;2.40;;;19.00;99.90;;;;;;5091013;28;20203;-73
2021/09/14 09:17:58;;;;;;;4.53;2.30;;;19.20;99.90;;;;;;5090826;28;20197;-73
2021/09/14 09:20:25;;;;;;;3.87;2.40;;;19.30;99.90;;;;;;5091047;28;20725;-73
2021/09/14 09:22:57;;;;;;;51.47;6.53;;;19.30;99.90;;;;;;5091146;28;20203;-74
2021/09/14 09:25:24;;;;;;;17.90;4.13;;;19.30;99.90;;;;;;5091249;28;20191;-73
2021/09/14 09:28:06;;;;;;;7.90;2.80;;;19.50;99.90;;;;;;5091074;28;20258;-73
2021/09/14 09:30:36;;;;;;;5.63;2.27;;;19.60;99.90;;;;;;5090545;28;20202;-73
2021/09/14 09:33:03;;;;;;;2.77;2.00;;;19.70;99.90;;;;;;5090994;28;20240;-73
2021/09/14 09:35:31;;;;;;;7.70;2.60;;;19.80;99.90;;;;;;5090204;28;20285;-74
2021/09/14 09:37:59;;;;;;;3.33;2.10;;;19.80;99.90;;;;;;5089929;28;20215;-74
2021/09/14 09:40:30;;;;;;;2.47;1.93;;;19.90;99.90;;;;;;5090064;28;20265;-74
2021/09/14 09:42:59;;;;;;;3.83;2.40;;;19.90;99.90;;;;;;5090232;28;20238;-73
2021/09/14 09:45:26;;;;;;;2.20;2.00;;;19.90;99.90;;;;;;5090180;28;20218;-74
2021/09/14 09:47:53;;;;;;;2.83;1.87;;;19.90;99.90;;;;;;5089702;28;20223;-74
2021/09/14 09:50:19;;;;;;;3.30;1.80;;;20.00;99.90;;;;;;5089607;28;20199;-74
2021/09/14 09:52:47;;;;;;;2.20;2.00;;;20.00;99.90;;;;;;5089946;28;20660;-74
2021/09/14 09:55:14;;;;;;;1.90;1.80;;;19.90;99.90;;;;;;5090255;28;20630;-74
2021/09/14 09:57:40;;;;;;;3.60;2.37;;;19.90;99.90;;;;;;5090537;28;20290;-73
2021/09/14 10:00:12;;;;;;;5.10;2.80;;;19.90;99.90;;;;;;5088251;28;20593;-74
2021/09/14 10:02:42;;;;;;;4.10;2.27;;;20.00;99.90;;;;;;5087864;28;20727;-74
2021/09/14 10:05:11;;;;;;;2.73;2.10;;;20.00;99.90;;;;;;5087791;28;20276;-74
2021/09/14 10:07:41;;;;;;;5.53;2.30;;;20.30;99.90;;;;;;5087769;28;20239;-74
2021/09/14 10:10:08;;;;;;;4.93;3.23;;;20.30;99.90;;;;;;5087252;28;20243;-76
2021/09/14 10:12:36;;;;;;;2.60;2.40;;;20.40;99.90;;;;;;5088643;28;20199;-77
2021/09/14 10:15:05;;;;;;;3.27;2.30;;;20.60;99.90;;;;;;5088475;28;20203;-76
2021/09/14 10:17:46;;;;;;;3.73;2.20;;;20.70;99.90;;;;;;5088366;28;20273;-76
2021/09/14 10:20:14;;;;;;;4.00;2.27;;;20.60;99.90;;;;;;5089054;28;20240;-76
2021/09/14 10:22:40;;;;;;;4.90;2.53;;;20.60;99.90;;;;;;5089411;28;20191;-76
2021/09/14 10:25:11;;;;;;;3.93;2.87;;;20.80;99.90;;;;;;5088735;28;20945;-76
2021/09/14 10:27:40;;;;;;;3.17;2.37;;;20.90;99.90;;;;;;5086421;28;20198;-76
2021/09/14 10:30:09;;;;;;;4.50;2.38;;;21.10;99.90;;;;;;5088793;28;20206;-76
2021/09/14 10:32:42;;;;;;;3.87;2.73;;;21.10;99.90;;;;;;5086540;28;20191;-76
2021/09/14 10:35:10;;;;;;;3.40;2.43;;;21.10;99.90;;;;;;5088940;28;20186;-76
2021/09/14 10:37:38;;;;;;;2.43;2.23;;;21.10;99.90;;;;;;5088848;28;20199;-76
2021/09/14 10:40:11;;;;;;;2.53;2.30;;;21.10;99.90;;;;;;5088551;28;20203;-76
2021/09/14 10:42:39;;;;;;;3.70;2.50;;;21.20;99.90;;;;;;5088529;28;20268;-76
2021/09/14 10:45:11;;;;;;;2.47;2.28;;;21.20;99.90;;;;;;5088472;28;20399;-76
2021/09/14 10:47:39;;;;;;;8.10;2.63;;;21.10;99.90;;;;;;5086051;28;20282;-76
2021/09/14 10:50:09;;;;;;;2.63;2.50;;;21.00;99.90;;;;;;5088827;28;20233;-76
2021/09/14 10:52:37;;;;;;;3.10;2.40;;;21.20;99.90;;;;;;5088553;28;20241;-76
2021/09/14 10:55:12;;;;;;;7.47;2.80;;;21.40;99.90;;;;;;5088194;28;20211;-75
2021/09/14 10:57:41;;;;;;;3.75;2.40;;;21.50;99.90;;;;;;5085662;28;20240;-76
2021/09/14 11:00:09;;;;;;;3.72;2.10;;;21.60;99.90;;;;;;5087505;28;20199;-76
2021/09/14 11:02:37;;;;;;;3.00;2.40;;;21.70;99.90;;;;;;5087494;28;20195;-76
2021/09/14 11:05:05;;;;;;;2.47;2.28;;;21.90;99.90;;;;;;5088038;28;20219;-75
2021/09/14 11:07:33;;;;;;;3.35;2.70;;;22.00;99.90;;;;;;5087751;28;20235;-75
2021/09/14 11:10:01;;;;;;;3.53;2.70;;;22.10;99.90;;;;;;5087853;28;20308;-75
2021/09/14 11:12:30;;;;;;;2.78;2.35;;;22.10;99.90;;;;;;5087544;28;20199;-76
2021/09/14 11:14:58;;;;;;;3.05;2.15;;;22.10;99.90;;;;;;5087417;28;20206;-75
2021/09/14 11:17:27;;;;;;;4.22;2.55;;;22.20;99.90;;;;;;5087179;28;20203;-75
2021/09/14 11:19:54;;;;;;;3.13;2.72;;;22.30;99.90;;;;;;5087737;28;20244;-75
2021/09/14 11:22:34;;;;;;;5.90;2.40;;;22.30;99.90;;;;;;5087613;28;20248;-75
2021/09/14 11:25:01;;;;;;;3.08;2.47;;;22.50;99.90;;;;;;5085568;28;20251;-75
2021/09/14 11:27:27;;;;;;;4.88;2.55;;;22.40;99.90;;;;;;5087732;28;20649;-75
2021/09/14 11:29:55;;;;;;;2.40;2.20;;;22.50;99.90;;;;;;5086997;28;20219;-75
2021/09/14 11:32:22;;;;;;;5.28;3.30;;;22.80;99.90;;;;;;5087451;28;20609;-75
2021/09/14 11:34:52;;;;;;;3.33;2.83;;;23.00;99.90;;;;;;5087587;28;20199;-75
2021/09/14 11:37:35;;;;;;;2.60;2.40;;;23.10;99.90;;;;;;5084645;28;20202;-75
2021/09/14 11:40:01;;;;;;;2.25;2.05;;;23.20;99.90;;;;;;5081092;28;20234;-75
2021/09/14 11:42:28;;;;;;;2.72;2.47;;;23.20;99.90;;;;;;5087710;28;20218;-75
2021/09/14 11:45:03;;;;;;;3.00;2.63;;;23.30;99.90;;;;;;5087665;28;20241;-75
2021/09/14 11:47:30;;;;;;;5.45;2.65;;;23.30;99.90;;;;;;5087646;28;20226;-75
2021/09/14 11:49:56;;;;;;;3.05;2.80;;;23.40;99.90;;;;;;5087900;28;20226;-75
2021/09/14 11:52:23;;;;;;;7.53;2.75;;;23.50;99.90;;;;;;5087714;28;20206;-75
2021/09/14 11:54:51;;;;;;;2.92;2.60;;;23.50;99.90;;;;;;5087674;28;20260;-75
2021/09/14 11:57:20;;;;;;;3.10;2.78;;;23.60;99.90;;;;;;5086587;28;20210;-75
2021/09/14 11:59:47;;;;;;;4.20;2.67;;;23.70;99.90;;;;;;5087261;28;20210;-75
2021/09/14 12:02:17;;;;;;;4.10;2.42;;;23.70;99.90;;;;;;5087515;28;20210;-75
2021/09/14 12:04:44;;;;;;;2.78;2.38;;;23.80;99.90;;;;;;5087212;28;20228;-75
2021/09/14 12:07:19;;;;;;;3.78;2.78;;;23.90;99.90;;;;;;5086273;28;20331;-75
2021/09/14 12:09:45;;;;;;;5.05;2.70;;;24.00;99.90;;;;;;5087347;28;20405;-75
2021/09/14 12:12:14;;;;;;;3.42;2.53;;;24.00;99.90;;;;;;5087555;28;20214;-75
2021/09/14 12:14:42;;;;;;;3.67;2.58;;;23.90;99.90;;;;;;5086952;28;20305;-75
2021/09/14 12:17:09;;;;;;;3.47;2.78;;;23.90;99.90;;;;;;5087189;28;20727;-74
2021/09/14 12:19:37;;;;;;;3.58;2.45;;;24.00;99.90;;;;;;5086873;28;20302;-75
2021/09/14 12:22:04;;;;;;;3.20;2.30;;;24.10;99.90;;;;;;5087252;28;20705;-75
2021/09/14 12:24:30;;;;;;;2.67;2.47;;;24.10;99.90;;;;;;5087462;28;20206;-75
2021/09/14 12:27:00;;;;;;;3.25;2.95;;;24.00;99.90;;;;;;5087204;28;20236;-75
2021/09/14 12:29:28;;;;;;;2.60;2.40;;;23.90;99.90;;;;;;5090861;28;20237;-75
2021/09/14 12:31:54;;;;;;;2.78;2.55;;;24.00;99.90;;;;;;5090703;28;20248;-75
2021/09/14 12:34:21;;;;;;;4.18;2.38;;;24.30;99.90;;;;;;5091369;28;20207;-75
2021/09/14 12:36:48;;;;;;;3.00;2.63;;;24.50;99.90;;;;;;5090917;28;20198;-75
2021/09/14 12:39:15;;;;;;;2.63;2.10;;;24.70;99.90;;;;;;5091124;28;20217;-75
2021/09/14 12:41:42;;;;;;;2.70;2.50;;;24.90;99.90;;;;;;5091157;28;20279;-75
2021/09/14 12:44:08;;;;;;;4.25;3.17;;;25.00;99.90;;;;;;5090623;28;20741;-75
2021/09/14 12:46:36;;;;;;;3.92;2.90;;;25.00;99.90;;;;;;5091166;28;20737;-83
2021/09/14 12:49:03;;;;;;;4.47;2.75;;;25.10;99.90;;;;;;5091218;28;20579;-78
2021/09/14 12:51:30;;;;;;;6.15;3.08;;;25.20;99.90;;;;;;5091545;28;20225;-72
2021/09/14 12:53:57;;;;;;;5.63;2.90;;;25.30;99.90;;;;;;5090810;28;20206;-72
2021/09/14 12:56:24;;;;;;;3.83;2.92;;;25.40;99.90;;;;;;5090623;28;20262;-74
2021/09/14 12:58:51;;;;;;;2.95;2.75;;;25.40;99.90;;;;;;5090566;28;20298;-75
2021/09/14 13:01:18;;;;;;;3.25;2.30;;;25.40;99.90;;;;;;5090591;28;20207;-74
2021/09/14 13:03:46;;;;;;;3.05;2.75;;;25.60;99.90;;;;;;5090986;28;20586;-79
2021/09/14 13:06:13;;;;;;;2.90;2.60;;;25.60;99.90;;;;;;5089280;28;20323;-75
2021/09/14 13:08:40;;;;;;;2.85;2.40;;;25.70;99.90;;;;;;5090361;28;20211;-75
2021/09/14 13:11:06;;;;;;;4.93;2.83;;;25.80;99.90;;;;;;5090712;28;20207;-75
2021/09/14 13:16:17;;;;;;;5.85;2.78;;;26.00;99.80;;;;;;5089953;28;20210;-75
2021/09/14 13:18:47;;;;;;;2.75;2.55;;;26.10;99.90;;;;;;5090123;28;20621;-75
2021/09/14 13:21:15;;;;;;;2.85;2.65;;;26.10;99.90;;;;;;5090367;28;20206;-75
2021/09/14 13:23:43;;;;;;;2.83;2.63;;;26.20;99.90;;;;;;5090099;28;20207;-75
2021/09/14 13:26:10;;;;;;;3.15;2.75;;;26.10;99.80;;;;;;5089805;28;20631;-75
2021/09/14 13:28:37;;;;;;;8.47;3.50;;;26.30;99.90;;;;;;5090116;28;20679;-75
2021/09/14 13:31:04;;;;;;;4.25;2.80;;;26.40;99.30;;;;;;5088901;28;20206;-75
2021/09/14 13:33:31;;;;;;;2.80;2.60;;;26.40;99.30;;;;;;5087106;28;20203;-75
2021/09/14 13:35:59;;;;;;;4.07;2.78;;;26.40;98.40;;;;;;5089854;28;20203;-75
2021/09/14 13:38:26;;;;;;;3.17;2.88;;;26.50;98.40;;;;;;5089460;28;20198;-76
2021/09/14 13:40:57;;;;;;;2.80;2.45;;;26.40;98.00;;;;;;5089370;28;20256;-75